Time;durP1;ratioP1;P1;durP2;ratioP2;P2;SDS_P1;SDS_P2;PMS_P1;PMS_P2;Temp;Humidity;BMP_temperature;BMP_pressure;BME280_temperature;BME280_humidity;BME280_pressure;Samples;Min_cycle;Max_cycle;Signal;HPM_P1;HPM_P2
2022/12/23 00:00:03;;;;;;;19.15;10.35;;;12.10;87.70;;;;;;5111085;28;20035;-70
2022/12/23 00:02:36;;;;;;;14.55;9.52;;;12.10;87.70;;;;;;5104310;28;20452;-70
2022/12/23 00:05:03;;;;;;;17.50;10.00;;;12.00;87.70;;;;;;5115236;27;20031;-69
2022/12/23 00:07:28;;;;;;;22.35;11.00;;;12.00;87.70;;;;;;5101921;27;20028;-70
2022/12/23 00:09:54;;;;;;;16.75;9.52;;;12.00;87.70;;;;;;5100988;27;20574;-69
2022/12/23 00:15:04;;;;;;;15.02;9.27;;;12.10;87.80;;;;;;5110932;27;20031;-70
2022/12/23 00:17:39;;;;;;;15.85;10.70;;;12.10;87.80;;;;;;5099806;28;20044;-70
2022/12/23 00:20:06;;;;;;;18.02;11.35;;;12.10;87.80;;;;;;5113613;28;20059;-70
2022/12/23 00:25:16;;;;;;;15.57;10.15;;;12.10;87.80;;;;;;5103101;28;20097;-70
2022/12/23 00:27:42;;;;;;;19.23;11.05;;;12.10;87.80;;;;;;5101955;28;20024;-69
2022/12/23 00:30:09;;;;;;;18.42;11.52;;;12.10;87.80;;;;;;5113463;28;20360;-70
2022/12/23 00:32:35;;;;;;;17.52;10.18;;;12.10;87.80;;;;;;5071054;28;20484;-70
2022/12/23 00:35:01;;;;;;;18.60;11.90;;;12.10;87.80;;;;;;5100280;28;20028;-70
2022/12/23 00:37:29;;;;;;;21.13;12.80;;;12.10;87.80;;;;;;5108068;27;20032;-69
2022/12/23 00:42:54;;;;;;;17.40;10.90;;;12.10;87.90;;;;;;5095797;28;20035;-70
2022/12/23 00:45:20;;;;;;;19.60;10.30;;;12.10;87.90;;;;;;5095811;28;22405;-70
2022/12/23 00:50:34;;;;;;;20.60;11.30;;;12.10;87.90;;;;;;5105388;28;20034;-69
2022/12/23 00:52:59;;;;;;;20.27;11.82;;;12.10;87.90;;;;;;5094290;28;20082;-70
2022/12/23 00:55:25;;;;;;;19.52;11.75;;;12.10;87.90;;;;;;5095879;28;20444;-69
2022/12/23 00:57:51;;;;;;;21.33;11.68;;;12.10;87.80;;;;;;5110394;28;20016;-69
2022/12/23 01:00:17;;;;;;;20.52;11.68;;;12.10;87.80;;;;;;5113965;28;20073;-69
2022/12/23 01:05:36;;;;;;;22.85;12.25;;;12.10;87.80;;;;;;5103086;28;20461;-70
2022/12/23 01:08:03;;;;;;;22.95;11.68;;;12.10;87.70;;;;;;5103187;28;20467;-70
2022/12/23 01:10:29;;;;;;;20.70;11.23;;;12.00;87.70;;;;;;5099176;28;20119;-69
2022/12/23 01:12:54;;;;;;;21.45;12.40;;;12.00;87.70;;;;;;5100152;28;20138;-70
2022/12/23 01:15:20;;;;;;;20.00;11.10;;;12.10;87.80;;;;;;5102921;28;20030;-70
2022/12/23 01:17:46;;;;;;;18.45;11.55;;;12.00;87.70;;;;;;5119487;27;20043;-71
2022/12/23 01:20:12;;;;;;;21.02;11.45;;;12.10;87.80;;;;;;5098349;28;20024;-70
2022/12/23 01:22:37;;;;;;;20.63;11.52;;;12.00;87.80;;;;;;5110415;28;20034;-70
2022/12/23 01:25:03;;;;;;;17.38;10.63;;;12.00;87.80;;;;;;5095323;28;20020;-70
2022/12/23 01:27:29;;;;;;;16.98;9.88;;;12.00;87.80;;;;;;5113211;28;20077;-70
2022/12/23 01:29:55;;;;;;;17.90;10.52;;;12.00;87.80;;;;;;5093789;28;20407;-70
2022/12/23 01:32:20;;;;;;;19.45;10.60;;;12.00;87.90;;;;;;5107480;27;20027;-69
2022/12/23 01:34:46;;;;;;;20.92;10.75;;;12.00;87.90;;;;;;5112922;28;20032;-70
2022/12/23 01:37:12;;;;;;;17.98;11.35;;;12.00;87.90;;;;;;5108973;28;20030;-70
2022/12/23 01:39:37;;;;;;;17.17;10.18;;;12.00;87.90;;;;;;5106393;28;20019;-70
2022/12/23 01:44:59;;;;;;;17.73;10.35;;;12.00;87.90;;;;;;5103113;28;20024;-69
2022/12/23 01:47:37;;;;;;;18.20;11.60;;;12.00;87.80;;;;;;5099230;28;20028;-70
2022/12/23 01:50:09;;;;;;;18.17;9.70;;;12.00;87.80;;;;;;5118622;27;20110;-70
2022/12/23 01:52:43;;;;;;;17.60;10.63;;;12.00;87.90;;;;;;5108613;28;20462;-69
2022/12/23 01:55:11;;;;;;;17.38;10.25;;;12.00;88.00;;;;;;5101899;28;20028;-69
2022/12/23 01:57:40;;;;;;;18.20;10.30;;;12.00;87.90;;;;;;5097967;28;20024;-70
2022/12/23 02:05:38;;;;;;;15.68;9.52;;;12.00;87.80;;;;;;5132808;27;20380;-70
2022/12/23 02:11:18;;;;;;;15.50;8.80;;;12.00;87.70;;;;;;5110111;28;20110;-69
2022/12/23 02:16:53;;;;;;;17.73;9.60;;;12.00;87.70;;;;;;5104825;28;20432;-69
2022/12/23 02:20:01;;;;;;;16.17;9.60;;;12.00;88.40;;;;;;5115430;28;20043;-70
2022/12/23 02:22:40;;;;;;;16.65;9.43;;;12.00;87.80;;;;;;5111298;27;20222;-70
2022/12/23 02:25:12;;;;;;;17.58;9.95;;;12.00;87.80;;;;;;5114210;28;20092;-69
2022/12/23 02:28:16;;;;;;;14.82;8.88;;;12.00;87.80;;;;;;5096979;28;20387;-70
2022/12/23 02:30:47;;;;;;;16.55;9.70;;;12.00;87.80;;;;;;5109985;28;20483;-69
2022/12/23 02:33:13;;;;;;;17.48;10.43;;;12.00;87.80;;;;;;5105038;28;20097;-70
2022/12/23 02:35:50;;;;;;;19.35;10.75;;;12.00;87.80;;;;;;5109930;28;20448;-70
2022/12/23 02:38:48;;;;;;;17.38;9.95;;;11.90;87.80;;;;;;5096630;28;20192;-70
2022/12/23 02:41:49;;;;;;;16.98;9.38;;;11.90;87.70;;;;;;5104897;28;20041;-69
2022/12/23 02:44:53;;;;;;;18.40;10.32;;;11.90;87.80;;;;;;5037974;28;20381;-69
2022/12/23 02:47:25;;;;;;;17.58;10.10;;;12.00;87.80;;;;;;5032178;28;20048;-69
2022/12/23 02:49:59;;;;;;;20.17;9.80;;;11.90;87.70;;;;;;5044523;28;20047;-69
2022/12/23 02:52:30;;;;;;;16.90;10.18;;;11.90;87.80;;;;;;5033640;28;20030;-69
2022/12/23 02:55:04;;;;;;;19.02;10.27;;;11.90;87.80;;;;;;5044372;28;20041;-69
2022/12/23 02:57:35;;;;;;;17.80;10.15;;;11.90;87.80;;;;;;5036677;28;20460;-70
2022/12/23 03:00:02;;;;;;;17.60;9.77;;;11.90;87.90;;;;;;5033527;28;20166;-70
2022/12/23 03:02:31;;;;;;;17.77;11.10;;;11.90;87.80;;;;;;5055209;28;20036;-69
2022/12/23 03:04:57;;;;;;;17.27;10.75;;;11.90;87.80;;;;;;5036160;28;20036;-69
2022/12/23 03:07:30;;;;;;;21.17;11.30;;;11.90;87.70;;;;;;5038300;28;20106;-69
2022/12/23 03:10:27;;;;;;;21.00;11.40;;;12.00;87.80;;;;;;5025592;28;20055;-69
2022/12/23 03:13:28;;;;;;;19.27;10.63;;;11.90;87.60;;;;;;5038432;28;20437;-69
2022/12/23 03:16:19;;;;;;;20.08;11.50;;;12.00;87.70;;;;;;4989301;28;20050;-70
2022/12/23 03:19:14;;;;;;;19.88;10.75;;;11.90;87.70;;;;;;4997864;28;20054;-70
2022/12/23 03:21:57;;;;;;;19.00;10.43;;;11.90;87.70;;;;;;5033070;28;20036;-69
2022/12/23 03:24:29;;;;;;;18.83;10.98;;;11.90;87.70;;;;;;5030309;28;20379;-70
2022/12/23 03:27:07;;;;;;;18.02;10.55;;;11.90;87.80;;;;;;5011150;28;20124;-70
2022/12/23 03:29:52;;;;;;;19.38;10.70;;;11.90;87.70;;;;;;5053097;28;20405;-69
2022/12/23 03:32:20;;;;;;;17.65;10.77;;;11.90;87.70;;;;;;5045430;28;20081;-69
2022/12/23 03:34:50;;;;;;;16.20;9.82;;;11.90;87.70;;;;;;5029893;28;20029;-69
2022/12/23 03:37:19;;;;;;;19.63;10.40;;;11.90;87.60;;;;;;5037322;28;20052;-70
2022/12/23 03:39:53;;;;;;;17.30;9.23;;;11.90;87.70;;;;;;5033115;28;20049;-70
2022/12/23 03:42:28;;;;;;;17.02;9.18;;;11.90;87.60;;;;;;5050977;28;20029;-69
2022/12/23 03:44:57;;;;;;;14.82;8.55;;;11.90;87.60;;;;;;5046609;28;20129;-69
2022/12/23 03:47:33;;;;;;;14.18;8.38;;;11.90;87.60;;;;;;5036603;28;20029;-70
2022/12/23 03:50:04;;;;;;;12.50;7.25;;;11.90;87.60;;;;;;5048021;28;20041;-69
2022/12/23 03:52:32;;;;;;;;;;;11.90;87.60;;;;;;5075289;28;20448;-69
2022/12/23 03:55:03;;;;;;;12.38;6.63;;;11.90;87.60;;;;;;5108339;27;20256;-69
2022/12/23 03:57:44;;;;;;;12.38;6.53;;;11.90;87.60;;;;;;5092809;28;20069;-69
2022/12/23 04:00:10;;;;;;;12.07;6.53;;;11.90;87.60;;;;;;5108887;28;20050;-69
2022/12/23 04:02:50;;;;;;;11.65;6.72;;;11.80;87.50;;;;;;5106661;28;20028;-70
2022/12/23 04:05:30;;;;;;;13.90;6.97;;;11.90;87.60;;;;;;5092249;28;20031;-69
2022/12/23 04:08:33;;;;;;;11.00;6.00;;;11.80;87.60;;;;;;5102107;28;20024;-69
2022/12/23 04:11:00;;;;;;;11.63;6.28;;;11.80;87.50;;;;;;5032938;28;20492;-69
2022/12/23 04:13:27;;;;;;;12.50;6.82;;;11.80;87.60;;;;;;5013310;28;20045;-69
2022/12/23 04:15:53;;;;;;;11.93;6.32;;;11.80;87.50;;;;;;5031693;28;20030;-69
2022/12/23 04:18:19;;;;;;;12.13;6.55;;;11.80;87.50;;;;;;5028345;28;20448;-69
2022/12/23 04:20:45;;;;;;;12.10;6.35;;;11.80;87.50;;;;;;5033569;28;20103;-69
2022/12/23 04:23:10;;;;;;;14.52;7.10;;;11.80;87.50;;;;;;5026412;28;20112;-69
2022/12/23 04:25:36;;;;;;;10.15;5.82;;;11.80;87.50;;;;;;5009891;28;20052;-70
2022/12/23 04:28:02;;;;;;;13.27;7.15;;;11.80;87.50;;;;;;5029136;28;20095;-70
2022/12/23 04:30:28;;;;;;;12.50;6.60;;;11.80;87.50;;;;;;5029196;28;20124;-69
2022/12/23 04:32:53;;;;;;;14.13;7.38;;;11.80;87.40;;;;;;5012500;28;20037;-69
2022/12/23 04:35:20;;;;;;;12.32;6.60;;;11.80;87.40;;;;;;5016303;28;20137;-69
2022/12/23 04:37:45;;;;;;;10.30;5.68;;;11.80;87.40;;;;;;5032903;28;20049;-69
2022/12/23 04:40:11;;;;;;;12.98;6.50;;;11.80;87.40;;;;;;5033333;28;20030;-69
2022/12/23 04:42:37;;;;;;;12.82;7.20;;;11.80;87.40;;;;;;5031160;28;20087;-69
2022/12/23 04:45:03;;;;;;;12.02;6.28;;;11.80;87.30;;;;;;5074926;28;20436;-70
2022/12/23 04:47:29;;;;;;;12.73;6.35;;;11.80;87.30;;;;;;5100387;28;20456;-69
2022/12/23 04:49:54;;;;;;;11.85;6.82;;;11.80;87.30;;;;;;5099664;28;20207;-70
2022/12/23 04:52:20;;;;;;;12.07;6.15;;;11.80;87.30;;;;;;5099495;28;20030;-69
2022/12/23 04:54:46;;;;;;;14.27;7.05;;;11.80;87.20;;;;;;5107105;28;20064;-69
2022/12/23 04:57:12;;;;;;;12.27;6.35;;;11.70;87.20;;;;;;5097580;28;20090;-69
2022/12/23 04:59:37;;;;;;;12.55;6.93;;;11.70;87.20;;;;;;5101672;28;20345;-69
2022/12/23 05:02:03;;;;;;;11.95;6.93;;;11.70;87.20;;;;;;5108968;27;21636;-69
2022/12/23 05:04:29;;;;;;;11.00;6.60;;;11.70;87.20;;;;;;5107582;28;20393;-69
2022/12/23 05:06:54;;;;;;;11.15;6.28;;;11.70;87.10;;;;;;5113332;28;20020;-70
2022/12/23 05:09:20;;;;;;;12.20;6.20;;;11.70;87.10;;;;;;5111969;27;20440;-69
2022/12/23 05:11:46;;;;;;;12.73;7.13;;;11.70;87.10;;;;;;5095859;28;20479;-70
2022/12/23 05:14:11;;;;;;;11.38;6.55;;;11.70;87.10;;;;;;5111324;28;20099;-69
2022/12/23 05:16:38;;;;;;;12.13;7.07;;;11.70;87.10;;;;;;5108635;27;20459;-69
2022/12/23 05:19:04;;;;;;;11.70;6.85;;;11.70;87.10;;;;;;5117814;27;20035;-69
2022/12/23 05:21:29;;;;;;;12.63;7.82;;;11.70;87.10;;;;;;5098024;28;20356;-69
2022/12/23 05:23:55;;;;;;;13.20;7.40;;;11.70;87.10;;;;;;5107322;28;20039;-69
2022/12/23 05:26:22;;;;;;;11.70;7.30;;;11.70;87.10;;;;;;5091408;28;20039;-69
2022/12/23 05:28:47;;;;;;;14.13;7.75;;;11.70;87.10;;;;;;5107878;27;20023;-69
2022/12/23 05:31:13;;;;;;;15.07;7.68;;;11.60;87.00;;;;;;5106513;28;20442;-69
2022/12/23 05:33:39;;;;;;;12.90;7.75;;;11.60;87.00;;;;;;5101779;28;20082;-69
2022/12/23 05:36:05;;;;;;;15.60;8.20;;;11.70;87.10;;;;;;5103909;28;20023;-69
2022/12/23 05:38:31;;;;;;;15.32;8.02;;;11.70;87.00;;;;;;5106038;28;20035;-70
2022/12/23 05:40:57;;;;;;;14.75;8.38;;;11.70;87.00;;;;;;5104095;28;20039;-69
2022/12/23 05:43:23;;;;;;;16.35;8.88;;;11.70;87.00;;;;;;5094512;28;20023;-70
2022/12/23 05:45:49;;;;;;;14.45;7.70;;;11.70;87.00;;;;;;5110368;28;20031;-69
2022/12/23 05:48:15;;;;;;;14.30;8.43;;;11.70;87.00;;;;;;5110715;28;20042;-70
2022/12/23 05:50:41;;;;;;;14.52;8.38;;;11.70;87.00;;;;;;5108492;28;20032;-70
2022/12/23 05:53:07;;;;;;;15.40;8.40;;;11.70;87.60;;;;;;5087902;28;20119;-69
2022/12/23 05:55:34;;;;;;;14.27;8.18;;;11.70;87.00;;;;;;5109046;28;20024;-69
2022/12/23 05:58:00;;;;;;;14.48;8.75;;;11.70;87.00;;;;;;5108594;28;20023;-68
2022/12/23 06:00:26;;;;;;;18.38;9.48;;;11.60;87.00;;;;;;5108149;28;20317;-69
2022/12/23 06:02:51;;;;;;;17.83;9.98;;;11.70;87.00;;;;;;5104238;28;20028;-69
2022/12/23 06:05:17;;;;;;;18.00;9.90;;;11.70;87.00;;;;;;5098938;28;20042;-69
2022/12/23 06:07:43;;;;;;;15.35;9.15;;;11.60;87.00;;;;;;5096506;28;20030;-69
2022/12/23 06:10:10;;;;;;;19.80;10.05;;;11.70;87.00;;;;;;5121346;28;20039;-69
2022/12/23 06:12:36;;;;;;;17.10;9.55;;;11.60;87.00;;;;;;5093948;28;20129;-69
2022/12/23 06:15:03;;;;;;;17.38;10.18;;;11.60;87.00;;;;;;5094404;28;20364;-68
2022/12/23 06:17:28;;;;;;;16.92;9.45;;;11.60;87.00;;;;;;5090651;28;20352;-69
2022/12/23 06:19:54;;;;;;;16.10;10.18;;;11.60;87.00;;;;;;5087300;28;20034;-69
2022/12/23 06:22:22;;;;;;;16.40;9.32;;;11.60;87.60;;;;;;5102456;28;20448;-69
2022/12/23 06:24:48;;;;;;;13.57;8.50;;;11.60;87.00;;;;;;5089140;28;20144;-68
2022/12/23 06:27:14;;;;;;;15.48;8.73;;;11.60;87.30;;;;;;5095832;28;20096;-69
2022/12/23 06:29:40;;;;;;;16.27;9.20;;;11.60;87.00;;;;;;5111621;28;20452;-69
2022/12/23 06:32:06;;;;;;;15.23;8.32;;;11.60;87.00;;;;;;5110624;28;20063;-69
2022/12/23 06:34:31;;;;;;;13.63;8.50;;;11.60;87.00;;;;;;5105491;28;20468;-69
2022/12/23 06:36:58;;;;;;;16.08;8.82;;;11.60;86.90;;;;;;5095528;28;20116;-69
2022/12/23 06:39:23;;;;;;;14.95;8.48;;;11.60;87.00;;;;;;5111637;28;20034;-68
2022/12/23 06:41:49;;;;;;;14.80;8.68;;;11.60;87.00;;;;;;5113266;28;20027;-69
2022/12/23 06:44:15;;;;;;;14.40;8.40;;;11.60;87.00;;;;;;5097771;28;20168;-69
2022/12/23 06:46:40;;;;;;;14.20;8.70;;;11.60;87.00;;;;;;5105262;28;20056;-69
2022/12/23 06:49:06;;;;;;;14.18;7.57;;;11.60;87.00;;;;;;5099182;28;20069;-69
2022/12/23 06:51:32;;;;;;;15.00;9.43;;;11.60;86.90;;;;;;5109910;28;20031;-70
2022/12/23 06:53:59;;;;;;;15.80;9.02;;;11.60;86.90;;;;;;5109575;28;20071;-70
2022/12/23 06:56:24;;;;;;;14.43;8.52;;;11.60;86.90;;;;;;5113449;28;20023;-69
2022/12/23 06:58:51;;;;;;;15.50;8.88;;;11.60;86.90;;;;;;5117997;27;20027;-69
2022/12/23 07:01:18;;;;;;;16.75;9.18;;;11.60;86.90;;;;;;5098836;28;20054;-68
2022/12/23 07:03:44;;;;;;;15.68;9.15;;;11.60;86.90;;;;;;5113900;28;20088;-69
2022/12/23 07:06:10;;;;;;;16.02;9.32;;;11.60;87.10;;;;;;5128185;27;20027;-68
2022/12/23 07:08:35;;;;;;;16.33;9.20;;;11.60;86.80;;;;;;5110417;28;20118;-68
2022/12/23 07:11:03;;;;;;;16.13;9.00;;;11.60;86.70;;;;;;5114527;28;20473;-69
2022/12/23 07:13:30;;;;;;;15.75;8.45;;;11.60;86.70;;;;;;5112219;28;20168;-69
2022/12/23 07:15:55;;;;;;;17.40;9.95;;;11.60;86.70;;;;;;5112673;27;20035;-68
2022/12/23 07:18:22;;;;;;;16.65;10.02;;;11.60;86.70;;;;;;5109465;28;20172;-68
2022/12/23 07:20:49;;;;;;;15.18;8.70;;;11.60;86.70;;;;;;5113409;28;20030;-69
2022/12/23 07:23:15;;;;;;;15.73;9.00;;;11.60;86.60;;;;;;5112836;28;20083;-69
2022/12/23 07:25:41;;;;;;;16.05;9.80;;;11.60;86.60;;;;;;5110833;28;20373;-68
2022/12/23 07:28:06;;;;;;;16.13;9.45;;;11.60;86.60;;;;;;5096890;28;20118;-69
2022/12/23 07:30:32;;;;;;;15.50;9.23;;;11.60;86.60;;;;;;5113764;27;20034;-68
2022/12/23 07:32:58;;;;;;;15.63;9.00;;;11.60;86.60;;;;;;5108783;28;20439;-68
2022/12/23 07:35:26;;;;;;;15.30;8.55;;;11.60;86.50;;;;;;5111794;28;20015;-70
2022/12/23 07:37:54;;;;;;;16.33;9.23;;;11.60;86.50;;;;;;5113261;28;20470;-68
2022/12/23 07:40:23;;;;;;;14.57;8.80;;;11.60;86.50;;;;;;5096157;28;20062;-68
2022/12/23 07:42:52;;;;;;;16.23;9.68;;;11.60;86.50;;;;;;5112445;28;20345;-69
2022/12/23 07:45:18;;;;;;;17.35;9.98;;;11.60;86.50;;;;;;5110414;27;20390;-70
2022/12/23 07:47:44;;;;;;;14.63;8.73;;;11.60;86.50;;;;;;5113492;28;20035;-70
2022/12/23 07:50:11;;;;;;;15.93;9.75;;;11.60;86.50;;;;;;5111365;28;20080;-69
2022/12/23 07:52:36;;;;;;;15.52;8.85;;;11.60;86.50;;;;;;5113073;28;20039;-67
2022/12/23 07:55:02;;;;;;;16.00;9.20;;;11.60;86.50;;;;;;5110881;28;20020;-69
2022/12/23 07:57:28;;;;;;;17.38;10.05;;;11.60;86.50;;;;;;5115654;27;20019;-69
2022/12/23 07:59:54;;;;;;;17.52;9.32;;;11.50;86.50;;;;;;5116671;27;20023;-69
2022/12/23 08:02:23;;;;;;;15.32;9.00;;;11.50;86.50;;;;;;5109877;28;20038;-68
2022/12/23 08:04:49;;;;;;;16.02;9.48;;;11.50;86.50;;;;;;5100454;28;20036;-69
2022/12/23 08:07:15;;;;;;;16.35;9.10;;;11.50;86.50;;;;;;5102827;28;20027;-68
2022/12/23 08:09:41;;;;;;;14.65;8.65;;;11.50;86.50;;;;;;5106188;28;20023;-67
2022/12/23 08:12:06;;;;;;;16.70;9.20;;;11.50;86.50;;;;;;5106537;28;20336;-69
2022/12/23 08:14:32;;;;;;;14.75;8.55;;;11.50;86.50;;;;;;5107772;28;20016;-69
2022/12/23 08:16:58;;;;;;;17.40;8.98;;;11.50;86.50;;;;;;5107193;28;20059;-69
2022/12/23 08:19:23;;;;;;;14.80;8.40;;;11.50;86.50;;;;;;5099995;28;20131;-68
2022/12/23 08:21:49;;;;;;;16.45;8.52;;;11.50;86.50;;;;;;5104387;28;20034;-68
2022/12/23 08:24:14;;;;;;;18.55;10.10;;;11.50;86.50;;;;;;5101792;28;20038;-67
2022/12/23 08:26:40;;;;;;;17.15;10.18;;;11.50;86.50;;;;;;5097664;28;20028;-67
2022/12/23 08:29:06;;;;;;;17.33;9.73;;;11.50;86.50;;;;;;5098318;28;20066;-67
2022/12/23 08:31:32;;;;;;;17.83;10.07;;;11.50;86.40;;;;;;5101912;28;20024;-66
2022/12/23 08:33:59;;;;;;;16.60;8.98;;;11.50;86.40;;;;;;5089504;28;20031;-66
2022/12/23 08:36:30;;;;;;;16.25;10.23;;;11.50;86.40;;;;;;5117692;27;20035;-66
2022/12/23 08:38:58;;;;;;;18.13;10.02;;;11.50;86.40;;;;;;5106808;28;20020;-67
2022/12/23 08:41:30;;;;;;;21.90;10.02;;;11.50;86.40;;;;;;5094639;28;20114;-67
2022/12/23 08:43:56;;;;;;;16.08;8.63;;;11.50;86.40;;;;;;5108753;28;20038;-67
2022/12/23 08:46:22;;;;;;;16.90;9.88;;;11.50;86.40;;;;;;5103221;28;20466;-67
2022/12/23 08:48:48;;;;;;;17.45;9.27;;;11.50;86.50;;;;;;5114669;28;20507;-67
2022/12/23 08:51:16;;;;;;;15.23;8.98;;;11.50;86.50;;;;;;5109507;28;20080;-67
2022/12/23 08:53:41;;;;;;;15.48;8.90;;;11.50;86.40;;;;;;5108691;28;20030;-67
2022/12/23 08:56:11;;;;;;;16.63;9.73;;;11.60;86.40;;;;;;5094297;28;20115;-68
2022/12/23 08:58:40;;;;;;;16.17;9.65;;;11.60;86.40;;;;;;5108743;28;20107;-69
2022/12/23 09:01:08;;;;;;;15.15;9.13;;;11.60;86.40;;;;;;5101920;28;20043;-72
2022/12/23 09:03:35;;;;;;;18.20;10.02;;;11.60;86.40;;;;;;5100421;28;20027;-68
2022/12/23 09:06:05;;;;;;;14.25;8.23;;;11.60;86.40;;;;;;5118053;28;20031;-68
2022/12/23 09:08:31;;;;;;;15.18;9.40;;;11.60;86.40;;;;;;5115410;28;20036;-68
2022/12/23 09:10:57;;;;;;;13.82;8.43;;;11.50;86.30;;;;;;5098262;28;20023;-69
2022/12/23 09:13:22;;;;;;;16.33;10.02;;;11.60;86.40;;;;;;5085415;28;20028;-68
2022/12/23 09:15:48;;;;;;;15.27;9.02;;;11.60;86.40;;;;;;5110477;28;20023;-68
2022/12/23 09:18:14;;;;;;;15.52;9.10;;;11.60;86.40;;;;;;5108186;28;20336;-68
2022/12/23 09:20:40;;;;;;;16.45;9.63;;;11.60;86.40;;;;;;5114416;28;20468;-68
2022/12/23 09:23:06;;;;;;;13.27;8.32;;;11.60;86.40;;;;;;5110320;28;20024;-69
2022/12/23 09:25:32;;;;;;;17.40;9.48;;;11.60;86.30;;;;;;5113457;28;20043;-68
2022/12/23 09:27:58;;;;;;;14.80;8.60;;;11.60;86.40;;;;;;5100016;28;20028;-69
2022/12/23 09:30:24;;;;;;;16.60;9.88;;;11.60;86.30;;;;;;5106732;28;20028;-69
2022/12/23 09:32:50;;;;;;;18.30;11.02;;;11.60;86.40;;;;;;5090476;28;20028;-69
2022/12/23 09:35:16;;;;;;;16.60;9.52;;;11.60;86.40;;;;;;5104098;28;20035;-69
2022/12/23 09:37:42;;;;;;;14.95;9.02;;;11.60;86.50;;;;;;5114420;28;20071;-69
2022/12/23 09:40:11;;;;;;;17.02;9.48;;;11.60;86.50;;;;;;5095163;28;20350;-69
2022/12/23 09:43:06;;;;;;;18.38;10.25;;;11.60;86.50;;;;;;5092263;28;20024;-69
2022/12/23 09:45:50;;;;;;;22.50;11.43;;;11.60;86.40;;;;;;5093932;28;20028;-68
2022/12/23 09:48:25;;;;;;;21.13;11.68;;;11.60;86.50;;;;;;5113358;28;20111;-69
2022/12/23 09:50:52;;;;;;;21.38;12.48;;;11.60;86.50;;;;;;5088903;28;20030;-69
2022/12/23 09:53:25;;;;;;;22.80;11.90;;;11.60;86.50;;;;;;5125975;27;20393;-71
2022/12/23 09:55:59;;;;;;;20.45;10.88;;;11.50;86.50;;;;;;5110962;28;20463;-70
2022/12/23 09:58:31;;;;;;;23.90;12.05;;;11.60;86.60;;;;;;5098945;28;20020;-70
2022/12/23 10:01:09;;;;;;;21.23;10.75;;;11.60;86.60;;;;;;5102122;28;20462;-69
2022/12/23 10:03:43;;;;;;;22.48;11.65;;;11.60;86.60;;;;;;5099859;28;20044;-70
2022/12/23 10:06:19;;;;;;;22.60;10.90;;;11.60;86.60;;;;;;5099071;28;20438;-70
2022/12/23 10:08:46;;;;;;;25.27;12.75;;;11.60;86.60;;;;;;5103690;28;20024;-72
2022/12/23 10:11:23;;;;;;;21.83;12.15;;;11.60;86.60;;;;;;5103601;28;20428;-72
2022/12/23 10:14:01;;;;;;;23.98;12.00;;;11.60;86.60;;;;;;5109431;28;20326;-72
2022/12/23 10:16:36;;;;;;;28.33;13.60;;;11.60;86.60;;;;;;5109750;28;20024;-71
2022/12/23 10:19:08;;;;;;;23.50;11.18;;;11.60;86.70;;;;;;5109469;28;20127;-73
2022/12/23 10:22:12;;;;;;;30.35;13.65;;;11.50;86.60;;;;;;5113311;28;20396;-71
2022/12/23 10:24:41;;;;;;;27.42;12.10;;;11.60;86.70;;;;;;5075109;28;20046;-73
2022/12/23 10:27:26;;;;;;;29.02;13.82;;;11.60;86.70;;;;;;5106022;28;20031;-71
2022/12/23 10:29:52;;;;;;;28.33;13.40;;;11.60;86.70;;;;;;5087576;28;20036;-70
2022/12/23 10:32:48;;;;;;;25.95;12.35;;;11.60;86.70;;;;;;5116932;27;20039;-72
2022/12/23 10:35:42;;;;;;;24.42;12.38;;;11.60;86.70;;;;;;5110252;28;20135;-70
2022/12/23 10:38:46;;;;;;;24.88;13.13;;;11.60;86.70;;;;;;5093632;28;20027;-71
2022/12/23 10:41:43;;;;;;;22.10;11.55;;;11.60;86.70;;;;;;5096863;28;20028;-70
2022/12/23 10:44:21;;;;;;;24.13;12.23;;;11.70;86.80;;;;;;5111703;28;20043;-69
2022/12/23 10:47:13;;;;;;;23.13;12.63;;;11.70;86.80;;;;;;5108409;28;20031;-74
2022/12/23 10:50:05;;;;;;;21.35;12.07;;;11.70;86.80;;;;;;5106416;27;20048;-73
2022/12/23 10:52:34;;;;;;;22.65;11.98;;;11.70;86.80;;;;;;5117201;27;20039;-73
2022/12/23 10:55:00;;;;;;;21.90;11.63;;;11.60;87.40;;;;;;5109617;28;20028;-74
2022/12/23 10:57:27;;;;;;;20.48;11.80;;;11.60;86.80;;;;;;5106348;28;20043;-73
2022/12/23 10:59:53;;;;;;;20.67;11.23;;;11.60;86.90;;;;;;5117205;27;20044;-80
2022/12/23 11:02:41;;;;;;;22.13;11.73;;;11.60;86.90;;;;;;5104916;28;20046;-77
2022/12/23 11:05:14;;;;;;;21.67;13.52;;;11.60;87.00;;;;;;5108448;28;20039;-78
2022/12/23 11:07:44;;;;;;;21.42;12.30;;;11.60;87.00;;;;;;5095497;28;20032;-75
2022/12/23 11:10:22;;;;;;;20.88;11.40;;;11.60;87.00;;;;;;5099923;28;20015;-75
2022/12/23 11:12:51;;;;;;;21.63;11.48;;;11.70;87.00;;;;;;5114830;28;20478;-75
2022/12/23 11:15:29;;;;;;;24.50;12.60;;;11.60;87.00;;;;;;5094283;28;20020;-77
2022/12/23 11:18:00;;;;;;;24.67;12.73;;;11.60;87.00;;;;;;5114908;28;20057;-78
2022/12/23 11:20:28;;;;;;;24.13;12.88;;;11.70;87.10;;;;;;5123225;27;20455;-76
2022/12/23 11:23:05;;;;;;;23.38;13.65;;;11.70;87.00;;;;;;5114034;28;20122;-74
2022/12/23 11:25:34;;;;;;;25.90;13.80;;;11.70;87.00;;;;;;5129374;27;20032;-74
2022/12/23 11:28:05;;;;;;;23.20;13.45;;;11.70;87.00;;;;;;5129281;27;20030;-74
2022/12/23 11:30:36;;;;;;;25.63;14.38;;;11.70;87.10;;;;;;5111794;28;20160;-74
2022/12/23 11:33:04;;;;;;;30.27;14.85;;;11.70;87.10;;;;;;5111384;28;20039;-75
2022/12/23 11:35:35;;;;;;;26.17;14.75;;;11.70;87.10;;;;;;5095270;28;20100;-75
2022/12/23 11:38:01;;;;;;;27.25;15.52;;;11.70;87.10;;;;;;5113621;28;20049;-74
2022/12/23 11:40:33;;;;;;;27.88;16.67;;;11.70;87.10;;;;;;5112930;28;20026;-74
2022/12/23 11:43:02;;;;;;;31.05;15.52;;;11.80;87.20;;;;;;5128275;27;20035;-75
2022/12/23 11:45:32;;;;;;;31.55;17.45;;;11.80;87.20;;;;;;5113248;28;20027;-76
2022/12/23 11:47:58;;;;;;;30.50;16.88;;;11.80;87.20;;;;;;5111875;28;20510;-74
2022/12/23 11:50:38;;;;;;;37.08;19.15;;;11.70;87.10;;;;;;5111090;28;20024;-74
2022/12/23 11:53:18;;;;;;;31.80;17.58;;;11.80;87.20;;;;;;5101600;28;20052;-75
2022/12/23 11:56:07;;;;;;;31.80;17.25;;;11.80;87.20;;;;;;5110823;28;20039;-74
2022/12/23 11:58:59;;;;;;;33.92;17.98;;;11.80;87.10;;;;;;5113315;28;20022;-74
2022/12/23 12:01:26;;;;;;;;;;;11.80;87.20;;;;;;5120352;27;20377;-73
2022/12/23 12:04:19;;;;;;;28.08;15.35;;;11.80;87.10;;;;;;5114813;27;20473;-74
2022/12/23 12:06:47;;;;;;;28.60;16.17;;;11.80;87.10;;;;;;5111309;28;20088;-73
2022/12/23 12:09:13;;;;;;;33.25;18.45;;;11.80;87.10;;;;;;5111651;28;20313;-74
2022/12/23 12:11:55;;;;;;;31.50;17.75;;;11.80;87.10;;;;;;5113467;28;20042;-74
2022/12/23 12:14:39;;;;;;;32.95;17.02;;;11.80;87.20;;;;;;5112410;27;20325;-75
2022/12/23 12:17:23;;;;;;;32.33;18.27;;;11.80;87.20;;;;;;5111353;27;20524;-75
2022/12/23 12:20:08;;;;;;;33.95;18.20;;;11.80;87.10;;;;;;5111645;28;20110;-75
2022/12/23 12:22:43;;;;;;;35.13;18.77;;;11.80;87.20;;;;;;5111536;28;20020;-74
2022/12/23 12:25:19;;;;;;;32.10;18.42;;;11.80;87.20;;;;;;5109143;28;20020;-74
2022/12/23 12:27:52;;;;;;;29.27;17.25;;;11.80;87.20;;;;;;5079424;28;20092;-74
2022/12/23 12:30:20;;;;;;;29.65;17.27;;;11.80;87.20;;;;;;5109302;28;20057;-74
2022/12/23 12:32:58;;;;;;;28.50;17.08;;;11.80;87.20;;;;;;5094067;28;20029;-75
2022/12/23 12:35:45;;;;;;;28.50;16.92;;;11.80;87.20;;;;;;5099377;28;20026;-75
2022/12/23 12:38:24;;;;;;;25.52;15.95;;;11.90;87.20;;;;;;5110371;28;20127;-74
2022/12/23 12:41:06;;;;;;;28.92;15.60;;;11.80;87.20;;;;;;5109511;28;20085;-74
2022/12/23 12:43:41;;;;;;;25.30;15.63;;;11.80;87.20;;;;;;5111684;28;20159;-74
2022/12/23 12:46:40;;;;;;;24.52;15.20;;;11.80;87.20;;;;;;5109060;28;20027;-74
2022/12/23 12:49:26;;;;;;;25.80;14.40;;;11.80;87.10;;;;;;5117204;27;20043;-74
2022/12/23 12:52:12;;;;;;;25.23;15.60;;;11.80;87.20;;;;;;5112134;27;20051;-73
2022/12/23 12:55:07;;;;;;;26.50;14.63;;;11.80;87.20;;;;;;5123234;28;20103;-74
2022/12/23 12:57:35;;;;;;;26.85;14.27;;;11.80;87.20;;;;;;5122693;27;20448;-75
2022/12/23 13:00:01;;;;;;;23.80;14.35;;;11.80;87.20;;;;;;5110455;28;20460;-74
2022/12/23 13:02:55;;;;;;;24.30;14.48;;;11.70;87.20;;;;;;5112555;28;20103;-74
2022/12/23 13:05:42;;;;;;;23.65;14.25;;;11.80;87.20;;;;;;5107640;28;20066;-74
2022/12/23 13:08:38;;;;;;;20.92;12.68;;;11.80;87.20;;;;;;5103877;28;20102;-74
2022/12/23 13:11:15;;;;;;;24.80;13.20;;;11.80;87.20;;;;;;5104932;27;20094;-74
2022/12/23 13:13:50;;;;;;;26.58;15.02;;;11.70;87.20;;;;;;5110485;27;20121;-74
2022/12/23 13:16:39;;;;;;;31.30;14.95;;;11.70;87.20;;;;;;5112667;27;20347;-74
2022/12/23 13:19:26;;;;;;;28.98;15.40;;;11.70;87.20;;;;;;5115054;27;20044;-74
2022/12/23 13:22:07;;;;;;;26.65;13.65;;;11.70;87.20;;;;;;5127828;27;20106;-74